sensor_id;sensor_type;location;lat;lon;timestamp;temperature;humidity
9006;DHT22;62284;50.702;7.140;2022-09-12T00:00:10;15.50;99.90
9006;DHT22;62284;50.702;7.140;2022-09-12T00:02:38;15.40;99.90
9006;DHT22;62284;50.702;7.140;2022-09-12T00:05:05;15.40;99.90
9006;DHT22;62284;50.702;7.140;2022-09-12T00:07:33;15.30;99.90
9006;DHT22;62284;50.702;7.140;2022-09-12T00:10:00;15.30;99.90
9006;DHT22;62284;50.702;7.140;2022-09-12T00:12:26;15.40;99.90
9006;DHT22;62284;50.702;7.140;2022-09-12T00:14:53;15.40;99.90
9006;DHT22;62284;50.702;7.140;2022-09-12T00:17:20;15.30;99.90
9006;DHT22;62284;50.702;7.140;2022-09-12T00:19:48;15.30;99.90
9006;DHT22;62284;50.702;7.140;2022-09-12T00:22:15;15.30;99.90
9006;DHT22;62284;50.702;7.140;2022-09-12T00:24:42;15.40;99.90
9006;DHT22;62284;50.702;7.140;2022-09-12T00:27:09;15.50;99.90
9006;DHT22;62284;50.702;7.140;2022-09-12T00:29:36;15.60;99.90
9006;DHT22;62284;50.702;7.140;2022-09-12T00:32:03;15.60;99.90
9006;DHT22;62284;50.702;7.140;2022-09-12T00:34:30;15.60;99.90
9006;DHT22;62284;50.702;7.140;2022-09-12T00:36:58;15.60;99.90
9006;DHT22;62284;50.702;7.140;2022-09-12T00:39:25;15.60;99.90
9006;DHT22;62284;50.702;7.140;2022-09-12T00:41:52;15.60;99.90
9006;DHT22;62284;50.702;7.140;2022-09-12T00:44:42;15.60;99.90
9006;DHT22;62284;50.702;7.140;2022-09-12T00:47:15;15.60;99.90
9006;DHT22;62284;50.702;7.140;2022-09-12T00:49:45;15.60;99.90
9006;DHT22;62284;50.702;7.140;2022-09-12T00:52:19;15.50;99.90
9006;DHT22;62284;50.702;7.140;2022-09-12T00:54:51;15.50;99.90
9006;DHT22;62284;50.702;7.140;2022-09-12T00:57:20;15.40;99.90
9006;DHT22;62284;50.702;7.140;2022-09-12T00:59:50;15.30;99.90
9006;DHT22;62284;50.702;7.140;2022-09-12T01:02:18;15.40;99.90
9006;DHT22;62284;50.702;7.140;2022-09-12T01:04:46;15.30;99.90
9006;DHT22;62284;50.702;7.140;2022-09-12T01:07:15;15.20;99.90
9006;DHT22;62284;50.702;7.140;2022-09-12T01:09:43;15.20;99.90
9006;DHT22;62284;50.702;7.140;2022-09-12T01:12:12;15.10;99.90
9006;DHT22;62284;50.702;7.140;2022-09-12T01:14:39;15.00;99.90
9006;DHT22;62284;50.702;7.140;2022-09-12T01:17:06;15.00;99.90
9006;DHT22;62284;50.702;7.140;2022-09-12T01:20:06;15.00;99.90
9006;DHT22;62284;50.702;7.140;2022-09-12T01:23:06;15.10;99.90
9006;DHT22;62284;50.702;7.140;2022-09-12T01:25:44;15.00;99.90
9006;DHT22;62284;50.702;7.140;2022-09-12T01:28:30;15.00;99.90
9006;DHT22;62284;50.702;7.140;2022-09-12T01:31:04;15.00;99.90
9006;DHT22;62284;50.702;7.140;2022-09-12T01:33:46;15.00;99.90
9006;DHT22;62284;50.702;7.140;2022-09-12T01:36:33;15.10;99.90
9006;DHT22;62284;50.702;7.140;2022-09-12T01:39:04;15.10;99.90
9006;DHT22;62284;50.702;7.140;2022-09-12T01:41:41;15.00;99.90
9006;DHT22;62284;50.702;7.140;2022-09-12T01:44:13;15.10;99.90
9006;DHT22;62284;50.702;7.140;2022-09-12T01:46:46;15.10;99.90
9006;DHT22;62284;50.702;7.140;2022-09-12T01:49:18;15.10;99.90
9006;DHT22;62284;50.702;7.140;2022-09-12T01:51:53;15.00;99.90
9006;DHT22;62284;50.702;7.140;2022-09-12T01:54:26;15.00;99.90
9006;DHT22;62284;50.702;7.140;2022-09-12T01:56:58;15.00;99.90
9006;DHT22;62284;50.702;7.140;2022-09-12T01:59:31;15.10;99.90
9006;DHT22;62284;50.702;7.140;2022-09-12T02:02:03;15.10;99.90
9006;DHT22;62284;50.702;7.140;2022-09-12T02:04:34;15.10;99.90
9006;DHT22;62284;50.702;7.140;2022-09-12T02:07:05;15.20;99.90
9006;DHT22;62284;50.702;7.140;2022-09-12T02:09:36;15.00;99.90
9006;DHT22;62284;50.702;7.140;2022-09-12T02:12:05;14.90;99.90
9006;DHT22;62284;50.702;7.140;2022-09-12T02:14:38;14.90;99.90
9006;DHT22;62284;50.702;7.140;2022-09-12T02:17:11;15.00;99.90
9006;DHT22;62284;50.702;7.140;2022-09-12T02:19:41;14.80;99.90
9006;DHT22;62284;50.702;7.140;2022-09-12T02:22:11;14.70;99.90
9006;DHT22;62284;50.702;7.140;2022-09-12T02:24:43;14.60;99.90
9006;DHT22;62284;50.702;7.140;2022-09-12T02:27:14;14.70;99.90
9006;DHT22;62284;50.702;7.140;2022-09-12T02:29:43;14.70;99.90
9006;DHT22;62284;50.702;7.140;2022-09-12T02:32:15;14.70;99.90
9006;DHT22;62284;50.702;7.140;2022-09-12T02:34:51;14.60;99.90
9006;DHT22;62284;50.702;7.140;2022-09-12T02:37:24;14.60;99.90
9006;DHT22;62284;50.702;7.140;2022-09-12T02:39:54;14.60;99.90
9006;DHT22;62284;50.702;7.140;2022-09-12T02:42:22;14.50;99.90
9006;DHT22;62284;50.702;7.140;2022-09-12T02:44:50;14.50;99.90
9006;DHT22;62284;50.702;7.140;2022-09-12T02:47:23;14.50;99.90
9006;DHT22;62284;50.702;7.140;2022-09-12T02:49:52;14.50;99.90
9006;DHT22;62284;50.702;7.140;2022-09-12T02:52:19;14.40;99.90
9006;DHT22;62284;50.702;7.140;2022-09-12T02:54:47;14.40;99.90
9006;DHT22;62284;50.702;7.140;2022-09-12T02:57:14;14.30;99.90
9006;DHT22;62284;50.702;7.140;2022-09-12T02:59:42;14.20;99.90
9006;DHT22;62284;50.702;7.140;2022-09-12T03:02:28;14.30;99.90
9006;DHT22;62284;50.702;7.140;2022-09-12T03:05:08;14.30;99.90
9006;DHT22;62284;50.702;7.140;2022-09-12T03:10:53;14.20;99.90
9006;DHT22;62284;50.702;7.140;2022-09-12T03:13:30;14.20;99.90
9006;DHT22;62284;50.702;7.140;2022-09-12T03:16:05;14.20;99.90
9006;DHT22;62284;50.702;7.140;2022-09-12T03:18:45;14.20;99.90
9006;DHT22;62284;50.702;7.140;2022-09-12T03:21:21;14.20;99.90
9006;DHT22;62284;50.702;7.140;2022-09-12T03:23:59;14.20;99.90
9006;DHT22;62284;50.702;7.140;2022-09-12T03:26:33;14.20;99.90
9006;DHT22;62284;50.702;7.140;2022-09-12T03:29:02;14.00;99.90
9006;DHT22;62284;50.702;7.140;2022-09-12T03:31:30;14.10;99.90
9006;DHT22;62284;50.702;7.140;2022-09-12T03:34:00;14.10;99.90
9006;DHT22;62284;50.702;7.140;2022-09-12T03:36:28;14.10;99.90
9006;DHT22;62284;50.702;7.140;2022-09-12T03:38:56;14.00;99.90
9006;DHT22;62284;50.702;7.140;2022-09-12T03:41:23;14.00;99.90
9006;DHT22;62284;50.702;7.140;2022-09-12T03:43:49;14.00;99.90
9006;DHT22;62284;50.702;7.140;2022-09-12T03:46:16;14.00;99.90
9006;DHT22;62284;50.702;7.140;2022-09-12T03:48:43;14.10;99.90
9006;DHT22;62284;50.702;7.140;2022-09-12T03:51:12;14.10;99.90
9006;DHT22;62284;50.702;7.140;2022-09-12T03:53:38;14.20;99.90
9006;DHT22;62284;50.702;7.140;2022-09-12T03:56:07;14.20;99.90
9006;DHT22;62284;50.702;7.140;2022-09-12T03:58:35;14.30;99.90
9006;DHT22;62284;50.702;7.140;2022-09-12T04:01:06;14.20;99.90
9006;DHT22;62284;50.702;7.140;2022-09-12T04:03:37;14.30;99.90
9006;DHT22;62284;50.702;7.140;2022-09-12T04:06:05;14.30;99.90
9006;DHT22;62284;50.702;7.140;2022-09-12T04:08:34;14.30;99.90
9006;DHT22;62284;50.702;7.140;2022-09-12T04:11:05;14.30;99.90
9006;DHT22;62284;50.702;7.140;2022-09-12T04:13:33;14.40;99.90
9006;DHT22;62284;50.702;7.140;2022-09-12T04:16:01;14.40;99.90
9006;DHT22;62284;50.702;7.140;2022-09-12T04:18:29;14.40;99.90
9006;DHT22;62284;50.702;7.140;2022-09-12T04:20:56;14.50;99.90
9006;DHT22;62284;50.702;7.140;2022-09-12T04:23:23;14.40;99.90
9006;DHT22;62284;50.702;7.140;2022-09-12T04:25:59;14.40;99.90
9006;DHT22;62284;50.702;7.140;2022-09-12T04:28:27;14.50;99.90
9006;DHT22;62284;50.702;7.140;2022-09-12T04:30:55;14.40;99.90
9006;DHT22;62284;50.702;7.140;2022-09-12T04:33:22;14.40;99.90
9006;DHT22;62284;50.702;7.140;2022-09-12T04:35:49;14.50;99.90
9006;DHT22;62284;50.702;7.140;2022-09-12T04:38:15;14.40;99.90
9006;DHT22;62284;50.702;7.140;2022-09-12T04:40:42;14.40;99.90
9006;DHT22;62284;50.702;7.140;2022-09-12T04:43:10;14.40;99.90
9006;DHT22;62284;50.702;7.140;2022-09-12T04:45:37;14.40;99.90
9006;DHT22;62284;50.702;7.140;2022-09-12T04:48:04;14.40;99.90
9006;DHT22;62284;50.702;7.140;2022-09-12T04:50:31;14.40;99.90
9006;DHT22;62284;50.702;7.140;2022-09-12T04:52:58;14.50;99.90
9006;DHT22;62284;50.702;7.140;2022-09-12T04:55:25;14.40;99.90
9006;DHT22;62284;50.702;7.140;2022-09-12T04:57:52;14.40;99.90
9006;DHT22;62284;50.702;7.140;2022-09-12T05:00:21;14.40;99.90
9006;DHT22;62284;50.702;7.140;2022-09-12T05:02:47;14.40;99.90
9006;DHT22;62284;50.702;7.140;2022-09-12T05:05:14;14.50;99.90
9006;DHT22;62284;50.702;7.140;2022-09-12T05:07:42;14.40;99.90
9006;DHT22;62284;50.702;7.140;2022-09-12T05:10:09;14.50;99.90
9006;DHT22;62284;50.702;7.140;2022-09-12T05:12:37;14.50;99.90
9006;DHT22;62284;50.702;7.140;2022-09-12T05:15:05;14.50;99.90
9006;DHT22;62284;50.702;7.140;2022-09-12T05:17:34;14.50;99.90
9006;DHT22;62284;50.702;7.140;2022-09-12T05:20:01;14.50;99.90
9006;DHT22;62284;50.702;7.140;2022-09-12T05:22:28;14.50;99.90
9006;DHT22;62284;50.702;7.140;2022-09-12T05:24:55;14.50;99.90
9006;DHT22;62284;50.702;7.140;2022-09-12T05:27:25;14.50;99.90
9006;DHT22;62284;50.702;7.140;2022-09-12T05:29:52;14.60;99.90
9006;DHT22;62284;50.702;7.140;2022-09-12T05:32:19;14.60;99.90
9006;DHT22;62284;50.702;7.140;2022-09-12T05:34:47;14.70;99.90
9006;DHT22;62284;50.702;7.140;2022-09-12T05:37:14;14.70;99.90
9006;DHT22;62284;50.702;7.140;2022-09-12T05:39:41;14.80;99.90
9006;DHT22;62284;50.702;7.140;2022-09-12T05:42:08;14.70;99.90
9006;DHT22;62284;50.702;7.140;2022-09-12T05:44:35;14.80;99.90
9006;DHT22;62284;50.702;7.140;2022-09-12T05:47:02;14.80;99.90
9006;DHT22;62284;50.702;7.140;2022-09-12T05:49:29;14.90;99.90
9006;DHT22;62284;50.702;7.140;2022-09-12T05:51:57;15.00;99.90
9006;DHT22;62284;50.702;7.140;2022-09-12T05:54:24;15.00;99.90
9006;DHT22;62284;50.702;7.140;2022-09-12T05:56:52;15.00;99.90
9006;DHT22;62284;50.702;7.140;2022-09-12T05:59:20;15.10;99.90
9006;DHT22;62284;50.702;7.140;2022-09-12T06:01:48;15.20;99.90
9006;DHT22;62284;50.702;7.140;2022-09-12T06:04:15;15.20;99.90
9006;DHT22;62284;50.702;7.140;2022-09-12T06:06:43;15.30;99.90
9006;DHT22;62284;50.702;7.140;2022-09-12T06:09:13;15.40;99.90
9006;DHT22;62284;50.702;7.140;2022-09-12T06:11:41;15.50;99.90
9006;DHT22;62284;50.702;7.140;2022-09-12T06:14:09;15.60;99.90
9006;DHT22;62284;50.702;7.140;2022-09-12T06:16:37;15.60;99.90
9006;DHT22;62284;50.702;7.140;2022-09-12T06:19:05;15.50;99.90
9006;DHT22;62284;50.702;7.140;2022-09-12T06:21:33;15.60;99.90
9006;DHT22;62284;50.702;7.140;2022-09-12T06:24:02;15.60;99.90
9006;DHT22;62284;50.702;7.140;2022-09-12T06:26:30;15.60;99.90
9006;DHT22;62284;50.702;7.140;2022-09-12T06:28:59;15.70;99.90
9006;DHT22;62284;50.702;7.140;2022-09-12T06:31:28;15.70;99.90
9006;DHT22;62284;50.702;7.140;2022-09-12T06:33:58;15.70;99.90
9006;DHT22;62284;50.702;7.140;2022-09-12T06:36:26;15.80;99.90
9006;DHT22;62284;50.702;7.140;2022-09-12T06:38:54;15.70;99.90
9006;DHT22;62284;50.702;7.140;2022-09-12T06:41:22;15.80;99.90
9006;DHT22;62284;50.702;7.140;2022-09-12T06:43:51;15.90;99.90
9006;DHT22;62284;50.702;7.140;2022-09-12T06:46:19;15.90;99.90
9006;DHT22;62284;50.702;7.140;2022-09-12T06:48:46;15.90;99.90
9006;DHT22;62284;50.702;7.140;2022-09-12T06:51:14;16.00;99.90
9006;DHT22;62284;50.702;7.140;2022-09-12T06:53:42;16.00;99.90
9006;DHT22;62284;50.702;7.140;2022-09-12T06:56:11;16.70;99.90
9006;DHT22;62284;50.702;7.140;2022-09-12T06:58:39;16.50;99.90
9006;DHT22;62284;50.702;7.140;2022-09-12T07:01:09;16.40;99.90
9006;DHT22;62284;50.702;7.140;2022-09-12T07:03:37;16.40;99.90
9006;DHT22;62284;50.702;7.140;2022-09-12T07:06:06;16.50;99.90
9006;DHT22;62284;50.702;7.140;2022-09-12T07:08:33;16.50;99.90
9006;DHT22;62284;50.702;7.140;2022-09-12T07:11:08;16.60;99.90
9006;DHT22;62284;50.702;7.140;2022-09-12T07:13:36;16.70;99.90
9006;DHT22;62284;50.702;7.140;2022-09-12T07:16:04;16.80;99.90
9006;DHT22;62284;50.702;7.140;2022-09-12T07:18:33;16.90;99.90
9006;DHT22;62284;50.702;7.140;2022-09-12T07:21:00;17.10;99.90
9006;DHT22;62284;50.702;7.140;2022-09-12T07:23:28;17.20;99.90
9006;DHT22;62284;50.702;7.140;2022-09-12T07:25:56;17.20;99.90
9006;DHT22;62284;50.702;7.140;2022-09-12T07:28:23;17.40;99.90
9006;DHT22;62284;50.702;7.140;2022-09-12T07:30:50;17.50;99.90
9006;DHT22;62284;50.702;7.140;2022-09-12T07:33:18;17.60;99.90
9006;DHT22;62284;50.702;7.140;2022-09-12T07:35:47;17.70;99.90
9006;DHT22;62284;50.702;7.140;2022-09-12T07:38:14;17.70;99.90
9006;DHT22;62284;50.702;7.140;2022-09-12T07:40:41;17.80;99.90
9006;DHT22;62284;50.702;7.140;2022-09-12T07:43:08;17.70;99.90
9006;DHT22;62284;50.702;7.140;2022-09-12T07:45:35;17.80;99.90
9006;DHT22;62284;50.702;7.140;2022-09-12T07:48:02;17.80;99.90
9006;DHT22;62284;50.702;7.140;2022-09-12T07:50:29;17.90;99.90
9006;DHT22;62284;50.702;7.140;2022-09-12T07:52:57;18.00;99.90
9006;DHT22;62284;50.702;7.140;2022-09-12T07:55:24;18.10;99.90
9006;DHT22;62284;50.702;7.140;2022-09-12T07:57:51;18.10;99.90
9006;DHT22;62284;50.702;7.140;2022-09-12T08:00:18;18.10;99.90
9006;DHT22;62284;50.702;7.140;2022-09-12T08:02:49;18.10;99.90
9006;DHT22;62284;50.702;7.140;2022-09-12T08:05:17;18.20;99.90
9006;DHT22;62284;50.702;7.140;2022-09-12T08:07:44;18.30;99.90
9006;DHT22;62284;50.702;7.140;2022-09-12T08:10:12;18.40;99.90
9006;DHT22;62284;50.702;7.140;2022-09-12T08:12:40;18.60;99.90
9006;DHT22;62284;50.702;7.140;2022-09-12T08:15:08;18.80;99.90
9006;DHT22;62284;50.702;7.140;2022-09-12T08:17:35;18.90;99.90
9006;DHT22;62284;50.702;7.140;2022-09-12T08:20:02;19.00;99.90
9006;DHT22;62284;50.702;7.140;2022-09-12T08:22:29;19.10;99.90
9006;DHT22;62284;50.702;7.140;2022-09-12T08:24:56;19.20;99.90
9006;DHT22;62284;50.702;7.140;2022-09-12T08:27:25;19.20;99.90
9006;DHT22;62284;50.702;7.140;2022-09-12T08:29:52;19.20;99.90
9006;DHT22;62284;50.702;7.140;2022-09-12T08:32:20;19.40;99.90
9006;DHT22;62284;50.702;7.140;2022-09-12T08:34:47;19.50;99.90
9006;DHT22;62284;50.702;7.140;2022-09-12T08:37:13;19.50;99.90
9006;DHT22;62284;50.702;7.140;2022-09-12T08:39:40;19.80;99.90
9006;DHT22;62284;50.702;7.140;2022-09-12T08:42:09;19.90;99.00
9006;DHT22;62284;50.702;7.140;2022-09-12T08:44:59;19.90;99.30
9006;DHT22;62284;50.702;7.140;2022-09-12T08:47:32;20.10;97.90
9006;DHT22;62284;50.702;7.140;2022-09-12T08:50:05;20.20;98.00
9006;DHT22;62284;50.702;7.140;2022-09-12T08:52:39;20.50;97.00
9006;DHT22;62284;50.702;7.140;2022-09-12T08:58:06;20.70;96.90
9006;DHT22;62284;50.702;7.140;2022-09-12T09:00:46;20.60;96.90
9006;DHT22;62284;50.702;7.140;2022-09-12T09:03:40;20.80;97.10
9006;DHT22;62284;50.702;7.140;2022-09-12T09:06:19;21.10;96.50
9006;DHT22;62284;50.702;7.140;2022-09-12T09:08:55;21.30;96.70
9006;DHT22;62284;50.702;7.140;2022-09-12T09:11:37;21.30;95.60
9006;DHT22;62284;50.702;7.140;2022-09-12T09:14:30;21.40;95.60
9006;DHT22;62284;50.702;7.140;2022-09-12T09:17:22;21.40;95.10
9006;DHT22;62284;50.702;7.140;2022-09-12T09:19:56;21.30;95.50
9006;DHT22;62284;50.702;7.140;2022-09-12T09:22:35;21.20;95.70
9006;DHT22;62284;50.702;7.140;2022-09-12T09:25:08;21.30;95.00
9006;DHT22;62284;50.702;7.140;2022-09-12T09:27:42;21.40;95.30
9006;DHT22;62284;50.702;7.140;2022-09-12T09:30:15;21.60;95.70
9006;DHT22;62284;50.702;7.140;2022-09-12T09:32:47;21.50;94.40
9006;DHT22;62284;50.702;7.140;2022-09-12T09:35:17;21.60;94.50
9006;DHT22;62284;50.702;7.140;2022-09-12T09:37:59;21.30;94.40
9006;DHT22;62284;50.702;7.140;2022-09-12T09:40:34;21.60;94.80
9006;DHT22;62284;50.702;7.140;2022-09-12T09:43:11;21.80;94.20
9006;DHT22;62284;50.702;7.140;2022-09-12T09:45:43;22.30;94.50
9006;DHT22;62284;50.702;7.140;2022-09-12T09:48:16;22.60;93.60
9006;DHT22;62284;50.702;7.140;2022-09-12T09:50:45;22.80;92.40
9006;DHT22;62284;50.702;7.140;2022-09-12T09:53:25;22.80;91.20
9006;DHT22;62284;50.702;7.140;2022-09-12T09:55:55;22.90;91.40
9006;DHT22;62284;50.702;7.140;2022-09-12T09:58:29;23.10;90.70
9006;DHT22;62284;50.702;7.140;2022-09-12T10:01:00;23.30;89.90
9006;DHT22;62284;50.702;7.140;2022-09-12T10:03:33;23.80;89.90
9006;DHT22;62284;50.702;7.140;2022-09-12T10:06:07;24.10;85.60
9006;DHT22;62284;50.702;7.140;2022-09-12T10:08:35;24.40;85.50
9006;DHT22;62284;50.702;7.140;2022-09-12T10:11:05;24.90;83.40
9006;DHT22;62284;50.702;7.140;2022-09-12T10:13:50;25.20;79.20
9006;DHT22;62284;50.702;7.140;2022-09-12T10:16:20;25.80;74.80
9006;DHT22;62284;50.702;7.140;2022-09-12T10:18:51;26.30;72.50
9006;DHT22;62284;50.702;7.140;2022-09-12T10:21:26;27.10;69.90
9006;DHT22;62284;50.702;7.140;2022-09-12T10:23:59;28.10;63.70
9006;DHT22;62284;50.702;7.140;2022-09-12T10:26:31;29.20;58.40
9006;DHT22;62284;50.702;7.140;2022-09-12T10:29:03;30.60;55.70
9006;DHT22;62284;50.702;7.140;2022-09-12T10:31:40;31.80;51.00
9006;DHT22;62284;50.702;7.140;2022-09-12T10:34:21;32.50;47.50
9006;DHT22;62284;50.702;7.140;2022-09-12T10:36:52;33.60;45.10
9006;DHT22;62284;50.702;7.140;2022-09-12T10:39:20;34.10;42.40
9006;DHT22;62284;50.702;7.140;2022-09-12T10:41:48;34.40;42.90
9006;DHT22;62284;50.702;7.140;2022-09-12T10:44:17;34.40;42.40
9006;DHT22;62284;50.702;7.140;2022-09-12T10:46:44;34.60;41.40
9006;DHT22;62284;50.702;7.140;2022-09-12T10:49:22;34.70;40.80
9006;DHT22;62284;50.702;7.140;2022-09-12T10:51:50;34.60;39.60
9006;DHT22;62284;50.702;7.140;2022-09-12T10:54:20;35.70;38.90
9006;DHT22;62284;50.702;7.140;2022-09-12T10:59:50;36.60;37.50
9006;DHT22;62284;50.702;7.140;2022-09-12T11:02:27;37.60;35.90
9006;DHT22;62284;50.702;7.140;2022-09-12T11:05:02;38.00;35.50
9006;DHT22;62284;50.702;7.140;2022-09-12T11:07:39;37.70;34.70
9006;DHT22;62284;50.702;7.140;2022-09-12T11:10:25;37.80;34.50
9006;DHT22;62284;50.702;7.140;2022-09-12T11:13:04;38.00;34.10
9006;DHT22;62284;50.702;7.140;2022-09-12T11:15:51;38.90;33.30
9006;DHT22;62284;50.702;7.140;2022-09-12T11:18:31;39.20;31.30
9006;DHT22;62284;50.702;7.140;2022-09-12T11:21:27;39.00;32.20
9006;DHT22;62284;50.702;7.140;2022-09-12T11:24:13;39.60;30.40
9006;DHT22;62284;50.702;7.140;2022-09-12T11:26:52;40.40;30.80
9006;DHT22;62284;50.702;7.140;2022-09-12T11:29:33;40.20;29.60
9006;DHT22;62284;50.702;7.140;2022-09-12T11:32:21;40.10;29.40
9006;DHT22;62284;50.702;7.140;2022-09-12T11:34:58;40.20;29.80
9006;DHT22;62284;50.702;7.140;2022-09-12T11:37:42;39.90;29.00
9006;DHT22;62284;50.702;7.140;2022-09-12T11:40:24;40.60;28.40
9006;DHT22;62284;50.702;7.140;2022-09-12T11:42:56;40.80;28.00
9006;DHT22;62284;50.702;7.140;2022-09-12T11:45:28;39.90;27.40
9006;DHT22;62284;50.702;7.140;2022-09-12T11:48:03;39.50;28.80
9006;DHT22;62284;50.702;7.140;2022-09-12T11:50:32;40.40;28.40
9006;DHT22;62284;50.702;7.140;2022-09-12T11:53:04;41.00;28.10
9006;DHT22;62284;50.702;7.140;2022-09-12T11:55:43;41.20;26.70
9006;DHT22;62284;50.702;7.140;2022-09-12T11:58:10;41.50;27.30
9006;DHT22;62284;50.702;7.140;2022-09-12T12:00:42;42.50;26.50
9006;DHT22;62284;50.702;7.140;2022-09-12T12:03:15;42.80;26.20
9006;DHT22;62284;50.702;7.140;2022-09-12T12:05:48;42.80;26.00
9006;DHT22;62284;50.702;7.140;2022-09-12T12:08:20;42.80;26.20
9006;DHT22;62284;50.702;7.140;2022-09-12T12:10:50;42.10;26.20
9006;DHT22;62284;50.702;7.140;2022-09-12T12:13:24;42.00;26.50
9006;DHT22;62284;50.702;7.140;2022-09-12T12:15:54;41.90;26.80
9006;DHT22;62284;50.702;7.140;2022-09-12T12:18:24;41.80;26.30
9006;DHT22;62284;50.702;7.140;2022-09-12T12:20:53;42.10;26.30
9006;DHT22;62284;50.702;7.140;2022-09-12T12:23:36;42.80;24.90
9006;DHT22;62284;50.702;7.140;2022-09-12T12:26:04;43.80;24.20
9006;DHT22;62284;50.702;7.140;2022-09-12T12:28:59;43.50;24.80
9006;DHT22;62284;50.702;7.140;2022-09-12T12:31:26;42.70;24.90
9006;DHT22;62284;50.702;7.140;2022-09-12T12:34:01;42.30;25.70
9006;DHT22;62284;50.702;7.140;2022-09-12T12:36:39;44.10;24.80
9006;DHT22;62284;50.702;7.140;2022-09-12T12:46:03;45.20;24.40
9006;DHT22;62284;50.702;7.140;2022-09-12T12:48:42;44.20;24.30
9006;DHT22;62284;50.702;7.140;2022-09-12T12:51:32;43.60;25.20
9006;DHT22;62284;50.702;7.140;2022-09-12T12:54:02;44.40;24.30
9006;DHT22;62284;50.702;7.140;2022-09-12T12:56:36;44.20;24.90
9006;DHT22;62284;50.702;7.140;2022-09-12T12:59:14;43.80;25.20
9006;DHT22;62284;50.702;7.140;2022-09-12T13:01:49;44.00;24.80
9006;DHT22;62284;50.702;7.140;2022-09-12T13:04:18;42.70;25.10
9006;DHT22;62284;50.702;7.140;2022-09-12T13:06:55;42.40;26.40
9006;DHT22;62284;50.702;7.140;2022-09-12T13:09:27;44.20;24.80
9006;DHT22;62284;50.702;7.140;2022-09-12T13:11:58;43.70;24.90
9006;DHT22;62284;50.702;7.140;2022-09-12T13:14:49;43.00;25.60
9006;DHT22;62284;50.702;7.140;2022-09-12T13:17:34;43.60;25.00
9006;DHT22;62284;50.702;7.140;2022-09-12T13:20:15;44.40;24.80
9006;DHT22;62284;50.702;7.140;2022-09-12T13:22:45;43.40;25.00
9006;DHT22;62284;50.702;7.140;2022-09-12T13:25:33;43.00;25.90
9006;DHT22;62284;50.702;7.140;2022-09-12T13:28:04;43.60;24.80
9006;DHT22;62284;50.702;7.140;2022-09-12T13:30:33;43.20;24.80
9006;DHT22;62284;50.702;7.140;2022-09-12T13:33:16;43.40;25.20
9006;DHT22;62284;50.702;7.140;2022-09-12T13:36:00;44.20;24.40
9006;DHT22;62284;50.702;7.140;2022-09-12T13:38:35;44.50;24.40
9006;DHT22;62284;50.702;7.140;2022-09-12T13:41:21;44.90;23.90
9006;DHT22;62284;50.702;7.140;2022-09-12T13:43:52;44.50;24.60
9006;DHT22;62284;50.702;7.140;2022-09-12T13:46:24;45.00;24.30
9006;DHT22;62284;50.702;7.140;2022-09-12T13:48:53;44.70;24.30
9006;DHT22;62284;50.702;7.140;2022-09-12T13:51:22;44.70;24.50
9006;DHT22;62284;50.702;7.140;2022-09-12T13:53:51;45.50;23.90
9006;DHT22;62284;50.702;7.140;2022-09-12T13:56:20;45.00;23.90
9006;DHT22;62284;50.702;7.140;2022-09-12T13:58:53;44.70;24.50
9006;DHT22;62284;50.702;7.140;2022-09-12T14:01:21;44.80;23.90
9006;DHT22;62284;50.702;7.140;2022-09-12T14:03:50;45.30;23.50
9006;DHT22;62284;50.702;7.140;2022-09-12T14:06:42;44.90;23.80
9006;DHT22;62284;50.702;7.140;2022-09-12T14:09:15;43.30;24.90
9006;DHT22;62284;50.702;7.140;2022-09-12T14:11:47;41.60;25.20
9006;DHT22;62284;50.702;7.140;2022-09-12T14:14:19;41.70;26.00
9006;DHT22;62284;50.702;7.140;2022-09-12T14:16:52;42.40;25.80
9006;DHT22;62284;50.702;7.140;2022-09-12T14:19:21;42.70;25.50
9006;DHT22;62284;50.702;7.140;2022-09-12T14:21:52;43.10;25.00
9006;DHT22;62284;50.702;7.140;2022-09-12T14:24:20;44.60;23.60
9006;DHT22;62284;50.702;7.140;2022-09-12T14:26:49;44.80;24.00
9006;DHT22;62284;50.702;7.140;2022-09-12T14:29:17;44.50;24.00
9006;DHT22;62284;50.702;7.140;2022-09-12T14:31:45;45.00;23.40
9006;DHT22;62284;50.702;7.140;2022-09-12T14:34:14;44.10;24.30
9006;DHT22;62284;50.702;7.140;2022-09-12T14:36:44;45.10;23.30
9006;DHT22;62284;50.702;7.140;2022-09-12T14:39:21;45.30;23.20
9006;DHT22;62284;50.702;7.140;2022-09-12T14:41:50;46.20;22.60
9006;DHT22;62284;50.702;7.140;2022-09-12T14:44:21;45.40;23.10
9006;DHT22;62284;50.702;7.140;2022-09-12T14:46:50;46.10;22.30
9006;DHT22;62284;50.702;7.140;2022-09-12T14:49:20;43.90;23.40
9006;DHT22;62284;50.702;7.140;2022-09-12T14:51:54;43.40;24.20
9006;DHT22;62284;50.702;7.140;2022-09-12T14:54:36;43.30;23.90
9006;DHT22;62284;50.702;7.140;2022-09-12T14:57:05;42.20;24.60
9006;DHT22;62284;50.702;7.140;2022-09-12T14:59:37;42.30;24.90
9006;DHT22;62284;50.702;7.140;2022-09-12T15:02:25;43.20;24.30
9006;DHT22;62284;50.702;7.140;2022-09-12T15:04:54;43.70;23.60
9006;DHT22;62284;50.702;7.140;2022-09-12T15:07:41;42.90;23.90
9006;DHT22;62284;50.702;7.140;2022-09-12T15:10:16;42.80;23.70
9006;DHT22;62284;50.702;7.140;2022-09-12T15:12:47;43.10;23.90
9006;DHT22;62284;50.702;7.140;2022-09-12T15:15:16;43.10;23.80
9006;DHT22;62284;50.702;7.140;2022-09-12T15:17:43;43.20;23.70
9006;DHT22;62284;50.702;7.140;2022-09-12T15:20:11;43.30;23.70
9006;DHT22;62284;50.702;7.140;2022-09-12T15:22:39;42.90;23.60
9006;DHT22;62284;50.702;7.140;2022-09-12T15:25:08;42.60;23.60
9006;DHT22;62284;50.702;7.140;2022-09-12T15:27:37;42.10;23.60
9006;DHT22;62284;50.702;7.140;2022-09-12T15:30:06;40.40;25.00
9006;DHT22;62284;50.702;7.140;2022-09-12T15:32:33;39.70;25.60
9006;DHT22;62284;50.702;7.140;2022-09-12T15:35:00;40.10;25.20
9006;DHT22;62284;50.702;7.140;2022-09-12T15:37:27;40.40;25.00
9006;DHT22;62284;50.702;7.140;2022-09-12T15:39:54;40.90;24.80
9006;DHT22;62284;50.702;7.140;2022-09-12T15:42:26;40.80;24.40
9006;DHT22;62284;50.702;7.140;2022-09-12T15:44:55;40.60;24.50
9006;DHT22;62284;50.702;7.140;2022-09-12T15:47:23;40.30;24.90
9006;DHT22;62284;50.702;7.140;2022-09-12T15:49:50;40.40;24.80
9006;DHT22;62284;50.702;7.140;2022-09-12T15:52:17;40.10;25.00
9006;DHT22;62284;50.702;7.140;2022-09-12T15:54:44;40.00;25.00
9006;DHT22;62284;50.702;7.140;2022-09-12T15:57:10;39.10;25.20
9006;DHT22;62284;50.702;7.140;2022-09-12T15:59:37;38.70;25.80
9006;DHT22;62284;50.702;7.140;2022-09-12T16:02:07;38.50;25.90
9006;DHT22;62284;50.702;7.140;2022-09-12T16:04:34;38.40;26.00
9006;DHT22;62284;50.702;7.140;2022-09-12T16:07:01;38.20;25.90
9006;DHT22;62284;50.702;7.140;2022-09-12T16:09:28;37.90;25.90
9006;DHT22;62284;50.702;7.140;2022-09-12T16:11:55;37.30;26.30
9006;DHT22;62284;50.702;7.140;2022-09-12T16:14:22;36.50;26.90
9006;DHT22;62284;50.702;7.140;2022-09-12T16:16:52;36.20;27.30
9006;DHT22;62284;50.702;7.140;2022-09-12T16:19:21;35.50;27.90
9006;DHT22;62284;50.702;7.140;2022-09-12T16:21:48;34.50;28.90
9006;DHT22;62284;50.702;7.140;2022-09-12T16:24:15;33.60;29.90
9006;DHT22;62284;50.702;7.140;2022-09-12T16:26:42;33.00;30.80